sensor_id;sensor_type;location;lat;lon;timestamp;temperature;humidity
43808;DHT22;29438;50.664;10.098;2023-08-17T00:01:30;17.00;94.80
43808;DHT22;29438;50.664;10.098;2023-08-17T00:03:55;17.00;94.80
43808;DHT22;29438;50.664;10.098;2023-08-17T00:06:21;16.90;94.70
43808;DHT22;29438;50.664;10.098;2023-08-17T00:08:46;16.80;94.70
43808;DHT22;29438;50.664;10.098;2023-08-17T00:11:12;16.70;94.60
43808;DHT22;29438;50.664;10.098;2023-08-17T00:13:37;16.70;94.70
43808;DHT22;29438;50.664;10.098;2023-08-17T00:16:03;16.70;94.70
43808;DHT22;29438;50.664;10.098;2023-08-17T00:18:28;16.60;94.80
43808;DHT22;29438;50.664;10.098;2023-08-17T00:20:54;16.70;94.80
43808;DHT22;29438;50.664;10.098;2023-08-17T00:23:20;16.80;94.80
43808;DHT22;29438;50.664;10.098;2023-08-17T00:25:47;16.80;94.80
43808;DHT22;29438;50.664;10.098;2023-08-17T00:28:13;16.70;94.80
43808;DHT22;29438;50.664;10.098;2023-08-17T00:30:39;16.60;94.90
43808;DHT22;29438;50.664;10.098;2023-08-17T00:33:05;16.70;94.90
43808;DHT22;29438;50.664;10.098;2023-08-17T00:35:31;16.80;94.90
43808;DHT22;29438;50.664;10.098;2023-08-17T00:37:58;16.90;95.00
43808;DHT22;29438;50.664;10.098;2023-08-17T00:40:23;16.80;94.90
43808;DHT22;29438;50.664;10.098;2023-08-17T00:42:49;16.70;95.00
43808;DHT22;29438;50.664;10.098;2023-08-17T00:45:15;16.70;94.90
43808;DHT22;29438;50.664;10.098;2023-08-17T00:47:41;16.70;94.90
43808;DHT22;29438;50.664;10.098;2023-08-17T00:50:07;16.60;95.00
43808;DHT22;29438;50.664;10.098;2023-08-17T00:52:33;16.60;95.00
43808;DHT22;29438;50.664;10.098;2023-08-17T00:55:00;16.70;95.10
43808;DHT22;29438;50.664;10.098;2023-08-17T00:57:27;16.70;95.00
43808;DHT22;29438;50.664;10.098;2023-08-17T00:59:53;16.80;95.10
43808;DHT22;29438;50.664;10.098;2023-08-17T01:02:19;16.80;95.10
43808;DHT22;29438;50.664;10.098;2023-08-17T01:04:44;16.80;95.10
43808;DHT22;29438;50.664;10.098;2023-08-17T01:07:10;16.70;95.10
43808;DHT22;29438;50.664;10.098;2023-08-17T01:09:36;16.70;95.10
43808;DHT22;29438;50.664;10.098;2023-08-17T01:17:26;16.70;95.20
43808;DHT22;29438;50.664;10.098;2023-08-17T01:19:53;16.70;95.20
43808;DHT22;29438;50.664;10.098;2023-08-17T01:22:21;16.70;95.20
43808;DHT22;29438;50.664;10.098;2023-08-17T01:24:47;16.70;95.20
43808;DHT22;29438;50.664;10.098;2023-08-17T01:27:13;16.70;95.20
43808;DHT22;29438;50.664;10.098;2023-08-17T01:29:39;16.60;95.10
43808;DHT22;29438;50.664;10.098;2023-08-17T01:32:15;16.60;95.10
43808;DHT22;29438;50.664;10.098;2023-08-17T01:35:09;16.50;95.10
43808;DHT22;29438;50.664;10.098;2023-08-17T01:37:34;16.50;95.10
43808;DHT22;29438;50.664;10.098;2023-08-17T01:40:00;16.50;95.10
43808;DHT22;29438;50.664;10.098;2023-08-17T01:42:25;16.50;95.10
43808;DHT22;29438;50.664;10.098;2023-08-17T01:44:51;16.40;95.10
43808;DHT22;29438;50.664;10.098;2023-08-17T01:47:23;16.30;95.10
43808;DHT22;29438;50.664;10.098;2023-08-17T01:49:50;16.40;95.10
43808;DHT22;29438;50.664;10.098;2023-08-17T01:52:15;16.30;95.20
43808;DHT22;29438;50.664;10.098;2023-08-17T01:54:41;16.30;95.20
43808;DHT22;29438;50.664;10.098;2023-08-17T01:57:06;16.20;95.20
43808;DHT22;29438;50.664;10.098;2023-08-17T01:59:32;16.20;95.20
43808;DHT22;29438;50.664;10.098;2023-08-17T02:01:57;16.20;95.20
43808;DHT22;29438;50.664;10.098;2023-08-17T02:04:23;16.20;95.20
43808;DHT22;29438;50.664;10.098;2023-08-17T02:06:48;16.20;95.20
43808;DHT22;29438;50.664;10.098;2023-08-17T02:09:14;16.10;95.30
43808;DHT22;29438;50.664;10.098;2023-08-17T02:11:39;16.10;95.20
43808;DHT22;29438;50.664;10.098;2023-08-17T02:14:05;16.20;95.30
43808;DHT22;29438;50.664;10.098;2023-08-17T02:16:30;16.30;95.30
43808;DHT22;29438;50.664;10.098;2023-08-17T02:18:56;16.20;95.30
43808;DHT22;29438;50.664;10.098;2023-08-17T02:21:21;16.20;95.20
43808;DHT22;29438;50.664;10.098;2023-08-17T02:23:47;16.10;95.20
43808;DHT22;29438;50.664;10.098;2023-08-17T02:26:12;16.10;95.20
43808;DHT22;29438;50.664;10.098;2023-08-17T02:28:38;16.10;95.20
43808;DHT22;29438;50.664;10.098;2023-08-17T02:31:04;16.00;95.20
43808;DHT22;29438;50.664;10.098;2023-08-17T02:33:29;16.00;95.20
43808;DHT22;29438;50.664;10.098;2023-08-17T02:35:55;15.90;95.20
43808;DHT22;29438;50.664;10.098;2023-08-17T02:38:20;15.80;95.20
43808;DHT22;29438;50.664;10.098;2023-08-17T02:40:46;15.70;95.20
43808;DHT22;29438;50.664;10.098;2023-08-17T02:43:13;15.70;95.30
43808;DHT22;29438;50.664;10.098;2023-08-17T02:45:39;15.80;95.40
43808;DHT22;29438;50.664;10.098;2023-08-17T02:48:04;15.80;95.40
43808;DHT22;29438;50.664;10.098;2023-08-17T02:50:30;15.90;95.40
43808;DHT22;29438;50.664;10.098;2023-08-17T02:52:55;15.90;95.40
43808;DHT22;29438;50.664;10.098;2023-08-17T02:55:21;15.80;95.40
43808;DHT22;29438;50.664;10.098;2023-08-17T02:57:47;15.70;95.40
43808;DHT22;29438;50.664;10.098;2023-08-17T03:00:13;15.60;95.40
43808;DHT22;29438;50.664;10.098;2023-08-17T03:02:38;15.60;95.30
43808;DHT22;29438;50.664;10.098;2023-08-17T03:05:04;15.50;95.30
43808;DHT22;29438;50.664;10.098;2023-08-17T03:07:29;15.50;95.40
43808;DHT22;29438;50.664;10.098;2023-08-17T03:09:55;15.50;95.40
43808;DHT22;29438;50.664;10.098;2023-08-17T03:12:20;15.40;95.40
43808;DHT22;29438;50.664;10.098;2023-08-17T03:14:46;15.40;95.40
43808;DHT22;29438;50.664;10.098;2023-08-17T03:17:11;15.30;95.30
43808;DHT22;29438;50.664;10.098;2023-08-17T03:19:37;15.30;95.30
43808;DHT22;29438;50.664;10.098;2023-08-17T03:22:03;15.30;95.40
43808;DHT22;29438;50.664;10.098;2023-08-17T03:24:28;15.30;95.40
43808;DHT22;29438;50.664;10.098;2023-08-17T03:26:54;15.20;95.40
43808;DHT22;29438;50.664;10.098;2023-08-17T03:29:19;15.20;95.40
43808;DHT22;29438;50.664;10.098;2023-08-17T03:31:48;15.20;95.40
43808;DHT22;29438;50.664;10.098;2023-08-17T03:34:15;15.00;95.40
43808;DHT22;29438;50.664;10.098;2023-08-17T03:36:40;15.00;95.40
43808;DHT22;29438;50.664;10.098;2023-08-17T03:39:06;14.90;95.40
43808;DHT22;29438;50.664;10.098;2023-08-17T03:41:32;14.80;95.40
43808;DHT22;29438;50.664;10.098;2023-08-17T03:43:57;14.80;95.40
43808;DHT22;29438;50.664;10.098;2023-08-17T03:46:23;14.90;95.50
43808;DHT22;29438;50.664;10.098;2023-08-17T03:48:48;14.90;95.50
43808;DHT22;29438;50.664;10.098;2023-08-17T03:51:14;14.90;95.60
43808;DHT22;29438;50.664;10.098;2023-08-17T03:53:39;15.00;95.60
43808;DHT22;29438;50.664;10.098;2023-08-17T03:56:05;15.00;95.60
43808;DHT22;29438;50.664;10.098;2023-08-17T03:58:30;14.90;95.50
43808;DHT22;29438;50.664;10.098;2023-08-17T04:01:00;14.90;95.60
43808;DHT22;29438;50.664;10.098;2023-08-17T04:03:25;15.00;95.50
43808;DHT22;29438;50.664;10.098;2023-08-17T04:05:51;15.00;95.60
43808;DHT22;29438;50.664;10.098;2023-08-17T04:08:16;15.00;95.60
43808;DHT22;29438;50.664;10.098;2023-08-17T04:10:42;15.00;95.60
43808;DHT22;29438;50.664;10.098;2023-08-17T04:13:07;15.00;95.60
43808;DHT22;29438;50.664;10.098;2023-08-17T04:15:33;15.00;95.60
43808;DHT22;29438;50.664;10.098;2023-08-17T04:17:59;14.90;95.60
43808;DHT22;29438;50.664;10.098;2023-08-17T04:20:24;14.90;95.60
43808;DHT22;29438;50.664;10.098;2023-08-17T04:22:51;14.90;95.70
43808;DHT22;29438;50.664;10.098;2023-08-17T04:25:16;14.90;95.70
43808;DHT22;29438;50.664;10.098;2023-08-17T04:27:42;14.90;95.60
43808;DHT22;29438;50.664;10.098;2023-08-17T04:30:08;14.90;95.70
43808;DHT22;29438;50.664;10.098;2023-08-17T04:32:34;14.90;95.60
43808;DHT22;29438;50.664;10.098;2023-08-17T04:34:59;14.90;95.70
43808;DHT22;29438;50.664;10.098;2023-08-17T04:37:25;14.90;95.70
43808;DHT22;29438;50.664;10.098;2023-08-17T04:39:50;14.90;95.70
43808;DHT22;29438;50.664;10.098;2023-08-17T04:42:16;15.00;95.70
43808;DHT22;29438;50.664;10.098;2023-08-17T04:44:42;15.00;95.80
43808;DHT22;29438;50.664;10.098;2023-08-17T04:47:07;15.00;95.70
43808;DHT22;29438;50.664;10.098;2023-08-17T04:49:33;15.00;95.80
43808;DHT22;29438;50.664;10.098;2023-08-17T04:51:59;15.30;96.10
43808;DHT22;29438;50.664;10.098;2023-08-17T04:54:24;15.50;96.20
43808;DHT22;29438;50.664;10.098;2023-08-17T04:56:50;15.70;96.20
43808;DHT22;29438;50.664;10.098;2023-08-17T04:59:15;16.40;96.60
43808;DHT22;29438;50.664;10.098;2023-08-17T05:01:41;17.20;96.90
43808;DHT22;29438;50.664;10.098;2023-08-17T05:04:06;18.20;97.00
43808;DHT22;29438;50.664;10.098;2023-08-17T05:06:32;19.20;96.30
43808;DHT22;29438;50.664;10.098;2023-08-17T05:08:58;20.90;92.90
43808;DHT22;29438;50.664;10.098;2023-08-17T05:11:24;22.30;81.20
43808;DHT22;29438;50.664;10.098;2023-08-17T05:13:49;23.80;71.90
43808;DHT22;29438;50.664;10.098;2023-08-17T05:16:15;25.30;66.60
43808;DHT22;29438;50.664;10.098;2023-08-17T05:18:41;26.30;61.90
43808;DHT22;29438;50.664;10.098;2023-08-17T05:21:06;26.30;59.50
43808;DHT22;29438;50.664;10.098;2023-08-17T05:23:32;26.60;60.10
43808;DHT22;29438;50.664;10.098;2023-08-17T05:25:57;28.40;55.20
43808;DHT22;29438;50.664;10.098;2023-08-17T05:28:23;29.30;52.30
43808;DHT22;29438;50.664;10.098;2023-08-17T05:30:49;30.00;49.60
43808;DHT22;29438;50.664;10.098;2023-08-17T05:33:15;29.80;50.20
43808;DHT22;29438;50.664;10.098;2023-08-17T05:35:40;29.80;49.90
43808;DHT22;29438;50.664;10.098;2023-08-17T05:38:08;29.70;50.70
43808;DHT22;29438;50.664;10.098;2023-08-17T05:40:33;30.20;49.20
43808;DHT22;29438;50.664;10.098;2023-08-17T05:42:59;30.10;49.10
43808;DHT22;29438;50.664;10.098;2023-08-17T05:45:25;30.50;47.80
43808;DHT22;29438;50.664;10.098;2023-08-17T05:47:51;30.50;48.80
43808;DHT22;29438;50.664;10.098;2023-08-17T05:50:17;30.40;48.20
43808;DHT22;29438;50.664;10.098;2023-08-17T05:52:42;29.50;50.60
43808;DHT22;29438;50.664;10.098;2023-08-17T05:55:08;29.20;52.10
43808;DHT22;29438;50.664;10.098;2023-08-17T05:57:34;28.60;52.80
43808;DHT22;29438;50.664;10.098;2023-08-17T06:00:00;26.90;56.10
43808;DHT22;29438;50.664;10.098;2023-08-17T06:02:25;26.60;57.80
43808;DHT22;29438;50.664;10.098;2023-08-17T06:04:51;27.60;55.90
43808;DHT22;29438;50.664;10.098;2023-08-17T06:07:17;29.00;53.30
43808;DHT22;29438;50.664;10.098;2023-08-17T06:09:42;30.10;50.30
43808;DHT22;29438;50.664;10.098;2023-08-17T06:12:08;30.80;48.60
43808;DHT22;29438;50.664;10.098;2023-08-17T06:14:33;31.10;48.10
43808;DHT22;29438;50.664;10.098;2023-08-17T06:16:59;31.40;46.80
43808;DHT22;29438;50.664;10.098;2023-08-17T06:19:25;32.40;45.50
43808;DHT22;29438;50.664;10.098;2023-08-17T06:21:51;32.60;45.00
43808;DHT22;29438;50.664;10.098;2023-08-17T06:24:17;32.10;45.90
43808;DHT22;29438;50.664;10.098;2023-08-17T06:26:43;32.00;45.70
43808;DHT22;29438;50.664;10.098;2023-08-17T06:29:09;31.90;46.50
43808;DHT22;29438;50.664;10.098;2023-08-17T06:31:35;30.60;48.40
43808;DHT22;29438;50.664;10.098;2023-08-17T06:34:01;30.80;48.70
43808;DHT22;29438;50.664;10.098;2023-08-17T06:36:30;32.40;45.70
43808;DHT22;29438;50.664;10.098;2023-08-17T06:38:56;32.90;44.40
43808;DHT22;29438;50.664;10.098;2023-08-17T06:41:22;33.80;42.90
43808;DHT22;29438;50.664;10.098;2023-08-17T06:43:47;33.70;42.70
43808;DHT22;29438;50.664;10.098;2023-08-17T06:46:13;33.80;41.70
43808;DHT22;29438;50.664;10.098;2023-08-17T06:48:39;32.80;43.70
43808;DHT22;29438;50.664;10.098;2023-08-17T06:51:04;32.60;44.40
43808;DHT22;29438;50.664;10.098;2023-08-17T06:53:30;32.20;45.50
43808;DHT22;29438;50.664;10.098;2023-08-17T06:55:56;32.60;44.40
43808;DHT22;29438;50.664;10.098;2023-08-17T06:58:21;31.50;46.70
43808;DHT22;29438;50.664;10.098;2023-08-17T07:00:47;32.10;46.40
43808;DHT22;29438;50.664;10.098;2023-08-17T07:03:12;31.60;47.30
43808;DHT22;29438;50.664;10.098;2023-08-17T07:05:38;32.20;46.30
43808;DHT22;29438;50.664;10.098;2023-08-17T07:08:04;32.00;46.90
43808;DHT22;29438;50.664;10.098;2023-08-17T07:10:29;31.90;47.00
43808;DHT22;29438;50.664;10.098;2023-08-17T07:12:55;32.60;46.20
43808;DHT22;29438;50.664;10.098;2023-08-17T07:15:20;32.30;46.30
43808;DHT22;29438;50.664;10.098;2023-08-17T07:17:46;31.70;47.60
43808;DHT22;29438;50.664;10.098;2023-08-17T07:20:12;31.90;47.70
43808;DHT22;29438;50.664;10.098;2023-08-17T07:22:37;32.00;49.00
43808;DHT22;29438;50.664;10.098;2023-08-17T07:25:03;32.20;46.50
43808;DHT22;29438;50.664;10.098;2023-08-17T07:27:29;30.80;50.70
43808;DHT22;29438;50.664;10.098;2023-08-17T07:29:55;29.70;52.90
43808;DHT22;29438;50.664;10.098;2023-08-17T07:32:20;27.20;58.30
43808;DHT22;29438;50.664;10.098;2023-08-17T07:34:47;25.70;65.30
43808;DHT22;29438;50.664;10.098;2023-08-17T07:37:12;25.40;65.90
43808;DHT22;29438;50.664;10.098;2023-08-17T07:39:38;25.10;67.10
43808;DHT22;29438;50.664;10.098;2023-08-17T07:42:04;24.50;69.40
43808;DHT22;29438;50.664;10.098;2023-08-17T07:44:29;24.60;70.40
43808;DHT22;29438;50.664;10.098;2023-08-17T07:46:57;24.10;71.00
43808;DHT22;29438;50.664;10.098;2023-08-17T07:49:23;23.50;73.50
43808;DHT22;29438;50.664;10.098;2023-08-17T07:51:49;23.80;73.70
43808;DHT22;29438;50.664;10.098;2023-08-17T07:54:15;24.20;70.50
43808;DHT22;29438;50.664;10.098;2023-08-17T07:56:41;24.60;70.10
43808;DHT22;29438;50.664;10.098;2023-08-17T07:59:07;24.70;69.90
43808;DHT22;29438;50.664;10.098;2023-08-17T08:01:32;23.60;72.30
43808;DHT22;29438;50.664;10.098;2023-08-17T08:03:58;22.80;74.60
43808;DHT22;29438;50.664;10.098;2023-08-17T08:06:24;21.90;77.70
43808;DHT22;29438;50.664;10.098;2023-08-17T08:08:49;22.20;78.90
43808;DHT22;29438;50.664;10.098;2023-08-17T08:11:15;22.10;78.50
43808;DHT22;29438;50.664;10.098;2023-08-17T08:13:40;22.20;78.50
43808;DHT22;29438;50.664;10.098;2023-08-17T08:16:06;22.30;78.70
43808;DHT22;29438;50.664;10.098;2023-08-17T08:18:31;23.00;76.30
43808;DHT22;29438;50.664;10.098;2023-08-17T08:20:57;23.30;76.40
43808;DHT22;29438;50.664;10.098;2023-08-17T08:23:23;23.40;75.00
43808;DHT22;29438;50.664;10.098;2023-08-17T08:25:48;23.60;75.10
43808;DHT22;29438;50.664;10.098;2023-08-17T08:28:14;23.20;74.90
43808;DHT22;29438;50.664;10.098;2023-08-17T08:30:39;22.40;76.70
43808;DHT22;29438;50.664;10.098;2023-08-17T08:33:05;22.30;79.10
43808;DHT22;29438;50.664;10.098;2023-08-17T08:35:30;22.70;78.30
43808;DHT22;29438;50.664;10.098;2023-08-17T08:37:58;22.50;77.20
43808;DHT22;29438;50.664;10.098;2023-08-17T08:40:28;21.90;80.30
43808;DHT22;29438;50.664;10.098;2023-08-17T08:42:57;22.20;80.70
43808;DHT22;29438;50.664;10.098;2023-08-17T08:45:23;22.20;78.40
43808;DHT22;29438;50.664;10.098;2023-08-17T08:47:50;22.00;78.90
43808;DHT22;29438;50.664;10.098;2023-08-17T08:50:19;21.80;81.00
43808;DHT22;29438;50.664;10.098;2023-08-17T08:52:58;21.80;80.50
43808;DHT22;29438;50.664;10.098;2023-08-17T08:55:29;21.80;80.20
43808;DHT22;29438;50.664;10.098;2023-08-17T08:57:56;21.60;80.50
43808;DHT22;29438;50.664;10.098;2023-08-17T09:00:22;21.70;81.50
43808;DHT22;29438;50.664;10.098;2023-08-17T09:02:48;21.80;80.40
43808;DHT22;29438;50.664;10.098;2023-08-17T09:05:15;22.10;80.30
43808;DHT22;29438;50.664;10.098;2023-08-17T09:07:42;22.70;79.40
43808;DHT22;29438;50.664;10.098;2023-08-17T09:10:09;23.70;75.70
43808;DHT22;29438;50.664;10.098;2023-08-17T09:12:35;24.20;72.60
43808;DHT22;29438;50.664;10.098;2023-08-17T09:15:00;25.00;70.00
43808;DHT22;29438;50.664;10.098;2023-08-17T09:17:26;24.20;71.80
43808;DHT22;29438;50.664;10.098;2023-08-17T09:19:52;23.80;74.30
43808;DHT22;29438;50.664;10.098;2023-08-17T09:22:25;23.70;73.30
43808;DHT22;29438;50.664;10.098;2023-08-17T09:24:51;23.90;74.30
43808;DHT22;29438;50.664;10.098;2023-08-17T09:27:17;24.20;73.90
43808;DHT22;29438;50.664;10.098;2023-08-17T09:29:46;24.10;74.00
43808;DHT22;29438;50.664;10.098;2023-08-17T09:32:14;24.20;72.70
43808;DHT22;29438;50.664;10.098;2023-08-17T09:34:42;24.00;73.90
43808;DHT22;29438;50.664;10.098;2023-08-17T09:37:08;23.60;75.70
43808;DHT22;29438;50.664;10.098;2023-08-17T09:39:33;22.90;77.20
43808;DHT22;29438;50.664;10.098;2023-08-17T09:41:59;22.90;78.80
43808;DHT22;29438;50.664;10.098;2023-08-17T09:44:25;23.80;75.70
43808;DHT22;29438;50.664;10.098;2023-08-17T09:46:51;23.10;76.30
43808;DHT22;29438;50.664;10.098;2023-08-17T09:49:17;22.70;78.50
43808;DHT22;29438;50.664;10.098;2023-08-17T09:51:44;22.70;78.90
43808;DHT22;29438;50.664;10.098;2023-08-17T09:54:23;22.40;78.90
43808;DHT22;29438;50.664;10.098;2023-08-17T09:56:50;22.00;80.60
43808;DHT22;29438;50.664;10.098;2023-08-17T09:59:17;21.70;81.90
43808;DHT22;29438;50.664;10.098;2023-08-17T10:01:43;21.80;81.20
43808;DHT22;29438;50.664;10.098;2023-08-17T10:04:11;22.00;80.80
43808;DHT22;29438;50.664;10.098;2023-08-17T10:06:39;22.00;82.10
43808;DHT22;29438;50.664;10.098;2023-08-17T10:09:07;22.20;80.00
43808;DHT22;29438;50.664;10.098;2023-08-17T10:11:37;21.70;81.10
43808;DHT22;29438;50.664;10.098;2023-08-17T10:14:11;21.50;82.90
43808;DHT22;29438;50.664;10.098;2023-08-17T10:16:45;21.30;81.90
43808;DHT22;29438;50.664;10.098;2023-08-17T10:24:53;20.70;84.90
43808;DHT22;29438;50.664;10.098;2023-08-17T10:27:21;21.00;84.80
43808;DHT22;29438;50.664;10.098;2023-08-17T10:29:47;21.10;83.80
43808;DHT22;29438;50.664;10.098;2023-08-17T10:32:13;21.00;83.80
43808;DHT22;29438;50.664;10.098;2023-08-17T10:34:40;21.10;83.70
43808;DHT22;29438;50.664;10.098;2023-08-17T10:37:06;21.20;83.20
43808;DHT22;29438;50.664;10.098;2023-08-17T10:39:32;21.30;83.20
43808;DHT22;29438;50.664;10.098;2023-08-17T10:42:00;21.70;82.60
43808;DHT22;29438;50.664;10.098;2023-08-17T10:44:44;21.80;83.30
43808;DHT22;29438;50.664;10.098;2023-08-17T10:47:21;22.20;81.50
43808;DHT22;29438;50.664;10.098;2023-08-17T10:49:52;22.00;80.80
43808;DHT22;29438;50.664;10.098;2023-08-17T10:52:50;21.90;81.10
43808;DHT22;29438;50.664;10.098;2023-08-17T10:55:16;21.80;82.60
43808;DHT22;29438;50.664;10.098;2023-08-17T10:57:44;22.50;80.80
43808;DHT22;29438;50.664;10.098;2023-08-17T11:00:16;22.80;79.20
43808;DHT22;29438;50.664;10.098;2023-08-17T11:02:56;23.40;78.40
43808;DHT22;29438;50.664;10.098;2023-08-17T11:05:44;23.70;76.20
43808;DHT22;29438;50.664;10.098;2023-08-17T11:08:22;24.20;74.30
43808;DHT22;29438;50.664;10.098;2023-08-17T11:13:30;24.40;74.30
43808;DHT22;29438;50.664;10.098;2023-08-17T11:15:57;24.90;72.60
43808;DHT22;29438;50.664;10.098;2023-08-17T11:18:23;25.00;71.90
43808;DHT22;29438;50.664;10.098;2023-08-17T11:20:50;24.90;72.70
43808;DHT22;29438;50.664;10.098;2023-08-17T11:23:15;25.20;70.50
43808;DHT22;29438;50.664;10.098;2023-08-17T11:25:42;24.80;71.50
43808;DHT22;29438;50.664;10.098;2023-08-17T11:28:08;24.90;72.70
43808;DHT22;29438;50.664;10.098;2023-08-17T11:30:35;25.00;72.40
43808;DHT22;29438;50.664;10.098;2023-08-17T11:33:02;25.00;71.00
43808;DHT22;29438;50.664;10.098;2023-08-17T11:35:28;25.20;71.50
43808;DHT22;29438;50.664;10.098;2023-08-17T11:37:53;25.40;70.40
43808;DHT22;29438;50.664;10.098;2023-08-17T11:40:19;24.70;71.00
43808;DHT22;29438;50.664;10.098;2023-08-17T11:42:45;24.80;71.80
43808;DHT22;29438;50.664;10.098;2023-08-17T11:45:12;24.60;72.60
43808;DHT22;29438;50.664;10.098;2023-08-17T11:47:41;24.80;73.40
43808;DHT22;29438;50.664;10.098;2023-08-17T11:50:10;24.70;72.70
43808;DHT22;29438;50.664;10.098;2023-08-17T11:52:35;25.00;73.10
43808;DHT22;29438;50.664;10.098;2023-08-17T11:55:02;25.40;72.50
43808;DHT22;29438;50.664;10.098;2023-08-17T11:57:29;25.40;71.70
43808;DHT22;29438;50.664;10.098;2023-08-17T11:59:56;25.40;70.30
43808;DHT22;29438;50.664;10.098;2023-08-17T12:02:25;25.10;71.60
43808;DHT22;29438;50.664;10.098;2023-08-17T12:04:52;24.50;73.30
43808;DHT22;29438;50.664;10.098;2023-08-17T12:07:19;24.90;77.00
43808;DHT22;29438;50.664;10.098;2023-08-17T12:09:48;25.30;74.40
43808;DHT22;29438;50.664;10.098;2023-08-17T12:12:18;25.10;74.50
43808;DHT22;29438;50.664;10.098;2023-08-17T12:14:44;24.90;73.80
43808;DHT22;29438;50.664;10.098;2023-08-17T12:17:17;24.80;74.10
43808;DHT22;29438;50.664;10.098;2023-08-17T12:19:44;25.10;75.50
43808;DHT22;29438;50.664;10.098;2023-08-17T12:22:12;25.20;74.30
43808;DHT22;29438;50.664;10.098;2023-08-17T12:24:38;25.40;73.80
43808;DHT22;29438;50.664;10.098;2023-08-17T12:27:05;25.20;73.20
43808;DHT22;29438;50.664;10.098;2023-08-17T12:29:31;25.00;74.80
43808;DHT22;29438;50.664;10.098;2023-08-17T12:32:07;25.10;74.20
43808;DHT22;29438;50.664;10.098;2023-08-17T12:34:32;25.10;75.30
43808;DHT22;29438;50.664;10.098;2023-08-17T12:36:58;25.10;74.50
43808;DHT22;29438;50.664;10.098;2023-08-17T12:39:23;25.50;75.20
43808;DHT22;29438;50.664;10.098;2023-08-17T12:41:49;25.60;73.90
43808;DHT22;29438;50.664;10.098;2023-08-17T12:44:14;25.40;74.20
43808;DHT22;29438;50.664;10.098;2023-08-17T12:46:40;25.50;74.50
43808;DHT22;29438;50.664;10.098;2023-08-17T12:49:06;25.40;77.00
43808;DHT22;29438;50.664;10.098;2023-08-17T12:51:32;25.20;74.90
43808;DHT22;29438;50.664;10.098;2023-08-17T12:53:58;25.40;75.20
43808;DHT22;29438;50.664;10.098;2023-08-17T12:56:23;25.20;75.40
43808;DHT22;29438;50.664;10.098;2023-08-17T12:58:49;25.20;75.40
43808;DHT22;29438;50.664;10.098;2023-08-17T13:01:14;24.90;76.30
43808;DHT22;29438;50.664;10.098;2023-08-17T13:03:40;24.60;77.20
43808;DHT22;29438;50.664;10.098;2023-08-17T13:06:06;24.60;78.30
43808;DHT22;29438;50.664;10.098;2023-08-17T13:08:32;24.60;77.00
43808;DHT22;29438;50.664;10.098;2023-08-17T13:10:57;24.70;77.50
43808;DHT22;29438;50.664;10.098;2023-08-17T13:13:23;24.50;78.00
43808;DHT22;29438;50.664;10.098;2023-08-17T13:15:49;24.20;78.60
43808;DHT22;29438;50.664;10.098;2023-08-17T13:18:14;24.20;78.90
43808;DHT22;29438;50.664;10.098;2023-08-17T13:20:40;24.30;79.90
43808;DHT22;29438;50.664;10.098;2023-08-17T13:23:06;24.70;78.80
43808;DHT22;29438;50.664;10.098;2023-08-17T13:25:32;25.20;77.30
43808;DHT22;29438;50.664;10.098;2023-08-17T13:27:57;25.80;75.90
43808;DHT22;29438;50.664;10.098;2023-08-17T13:30:23;26.00;73.20
43808;DHT22;29438;50.664;10.098;2023-08-17T13:32:48;25.80;74.40
43808;DHT22;29438;50.664;10.098;2023-08-17T13:35:14;25.70;75.90
43808;DHT22;29438;50.664;10.098;2023-08-17T13:37:40;25.70;74.40
43808;DHT22;29438;50.664;10.098;2023-08-17T13:40:06;25.50;75.50
43808;DHT22;29438;50.664;10.098;2023-08-17T13:42:33;25.20;75.10
43808;DHT22;29438;50.664;10.098;2023-08-17T13:44:58;25.20;75.10
43808;DHT22;29438;50.664;10.098;2023-08-17T13:47:24;24.80;76.00
43808;DHT22;29438;50.664;10.098;2023-08-17T13:49:49;24.60;76.80
43808;DHT22;29438;50.664;10.098;2023-08-17T13:52:15;24.50;77.70
43808;DHT22;29438;50.664;10.098;2023-08-17T13:54:40;24.70;76.80
43808;DHT22;29438;50.664;10.098;2023-08-17T13:57:06;24.80;76.30
43808;DHT22;29438;50.664;10.098;2023-08-17T13:59:32;24.80;77.20
43808;DHT22;29438;50.664;10.098;2023-08-17T14:01:57;24.90;77.00
43808;DHT22;29438;50.664;10.098;2023-08-17T14:04:23;24.90;77.30
43808;DHT22;29438;50.664;10.098;2023-08-17T14:06:48;24.60;77.00
43808;DHT22;29438;50.664;10.098;2023-08-17T14:09:14;24.40;77.50
43808;DHT22;29438;50.664;10.098;2023-08-17T14:11:39;24.40;77.70
43808;DHT22;29438;50.664;10.098;2023-08-17T14:14:05;24.40;78.30
43808;DHT22;29438;50.664;10.098;2023-08-17T14:16:31;24.30;78.30
43808;DHT22;29438;50.664;10.098;2023-08-17T14:18:56;24.20;79.00
43808;DHT22;29438;50.664;10.098;2023-08-17T14:21:22;24.10;78.50
43808;DHT22;29438;50.664;10.098;2023-08-17T14:23:47;24.00;78.70
43808;DHT22;29438;50.664;10.098;2023-08-17T14:26:13;24.00;79.60
43808;DHT22;29438;50.664;10.098;2023-08-17T14:28:38;24.10;79.30
43808;DHT22;29438;50.664;10.098;2023-08-17T14:31:06;24.40;78.70
43808;DHT22;29438;50.664;10.098;2023-08-17T14:33:31;24.70;78.40
43808;DHT22;29438;50.664;10.098;2023-08-17T14:35:57;25.10;77.50
43808;DHT22;29438;50.664;10.098;2023-08-17T14:38:23;25.30;76.40
43808;DHT22;29438;50.664;10.098;2023-08-17T14:40:48;25.50;75.10
43808;DHT22;29438;50.664;10.098;2023-08-17T14:43:15;25.80;76.50
43808;DHT22;29438;50.664;10.098;2023-08-17T14:45:41;25.80;75.30
43808;DHT22;29438;50.664;10.098;2023-08-17T14:48:07;26.10;74.30
43808;DHT22;29438;50.664;10.098;2023-08-17T14:50:33;26.20;73.60
43808;DHT22;29438;50.664;10.098;2023-08-17T14:52:59;26.50;72.10
43808;DHT22;29438;50.664;10.098;2023-08-17T14:55:28;26.30;72.50
43808;DHT22;29438;50.664;10.098;2023-08-17T14:57:54;26.10;72.80
43808;DHT22;29438;50.664;10.098;2023-08-17T15:00:19;26.30;72.90
43808;DHT22;29438;50.664;10.098;2023-08-17T15:02:45;26.40;72.60
43808;DHT22;29438;50.664;10.098;2023-08-17T15:05:10;26.80;71.30
43808;DHT22;29438;50.664;10.098;2023-08-17T15:07:36;26.90;70.70
43808;DHT22;29438;50.664;10.098;2023-08-17T15:10:02;26.50;72.60
43808;DHT22;29438;50.664;10.098;2023-08-17T15:12:28;26.50;72.20
43808;DHT22;29438;50.664;10.098;2023-08-17T15:14:53;26.60;71.70
43808;DHT22;29438;50.664;10.098;2023-08-17T15:17:19;26.10;72.60
43808;DHT22;29438;50.664;10.098;2023-08-17T15:19:44;25.70;74.70
43808;DHT22;29438;50.664;10.098;2023-08-17T15:22:10;25.80;74.90
43808;DHT22;29438;50.664;10.098;2023-08-17T15:24:35;25.70;73.70